sensor_id;sensor_type;location;lat;lon;timestamp;pressure;altitude;pressure_sealevel;temperature
76898;BMP180;65856;52.178;21.176;2023-03-14T00:01:27;98927.20;;;9.00
76898;BMP180;65856;52.178;21.176;2023-03-14T00:03:58;98927.60;;;8.90
76898;BMP180;65856;52.178;21.176;2023-03-14T00:06:29;98928.00;;;8.90
76898;BMP180;65856;52.178;21.176;2023-03-14T00:09:00;98927.40;;;8.80
76898;BMP180;65856;52.178;21.176;2023-03-14T00:11:31;98925.80;;;8.80
76898;BMP180;65856;52.178;21.176;2023-03-14T00:14:03;98915.60;;;8.70
76898;BMP180;65856;52.178;21.176;2023-03-14T00:16:34;98921.80;;;8.70
76898;BMP180;65856;52.178;21.176;2023-03-14T00:19:05;98925.00;;;8.70
76898;BMP180;65856;52.178;21.176;2023-03-14T00:21:36;98910.00;;;8.70
76898;BMP180;65856;52.178;21.176;2023-03-14T00:24:08;98909.60;;;8.60
76898;BMP180;65856;52.178;21.176;2023-03-14T00:26:39;98911.40;;;8.60
76898;BMP180;65856;52.178;21.176;2023-03-14T00:29:10;98891.80;;;8.50
76898;BMP180;65856;52.178;21.176;2023-03-14T00:31:41;98893.40;;;8.50
76898;BMP180;65856;52.178;21.176;2023-03-14T00:34:12;98884.20;;;8.40
76898;BMP180;65856;52.178;21.176;2023-03-14T00:36:42;98888.00;;;8.40
76898;BMP180;65856;52.178;21.176;2023-03-14T00:39:14;98871.40;;;8.40
76898;BMP180;65856;52.178;21.176;2023-03-14T00:41:45;98878.20;;;8.30
76898;BMP180;65856;52.178;21.176;2023-03-14T00:44:17;98876.20;;;8.30
76898;BMP180;65856;52.178;21.176;2023-03-14T00:46:47;98875.20;;;8.30
76898;BMP180;65856;52.178;21.176;2023-03-14T00:49:18;98873.60;;;8.30
76898;BMP180;65856;52.178;21.176;2023-03-14T00:51:49;98861.00;;;8.30
76898;BMP180;65856;52.178;21.176;2023-03-14T00:54:21;98856.00;;;8.20
76898;BMP180;65856;52.178;21.176;2023-03-14T00:56:52;98843.20;;;8.22
76898;BMP180;65856;52.178;21.176;2023-03-14T00:59:23;98842.20;;;8.30
76898;BMP180;65856;52.178;21.176;2023-03-14T01:01:53;98844.80;;;8.26
76898;BMP180;65856;52.178;21.176;2023-03-14T01:04:24;98830.80;;;8.20
76898;BMP180;65856;52.178;21.176;2023-03-14T01:06:55;98827.40;;;8.20
76898;BMP180;65856;52.178;21.176;2023-03-14T01:09:26;98830.60;;;8.20
76898;BMP180;65856;52.178;21.176;2023-03-14T01:11:56;98824.40;;;8.20
76898;BMP180;65856;52.178;21.176;2023-03-14T01:14:27;98821.40;;;8.20
76898;BMP180;65856;52.178;21.176;2023-03-14T01:16:58;98817.40;;;8.20
76898;BMP180;65856;52.178;21.176;2023-03-14T01:19:28;98813.80;;;8.20
76898;BMP180;65856;52.178;21.176;2023-03-14T01:21:59;98809.60;;;8.20
76898;BMP180;65856;52.178;21.176;2023-03-14T01:24:30;98808.40;;;8.18
76898;BMP180;65856;52.178;21.176;2023-03-14T01:27:01;98806.00;;;8.10
76898;BMP180;65856;52.178;21.176;2023-03-14T01:29:32;98806.80;;;8.10
76898;BMP180;65856;52.178;21.176;2023-03-14T01:32:03;98808.80;;;8.10
76898;BMP180;65856;52.178;21.176;2023-03-14T01:34:34;98811.20;;;8.10
76898;BMP180;65856;52.178;21.176;2023-03-14T01:37:04;98809.80;;;8.10
76898;BMP180;65856;52.178;21.176;2023-03-14T01:39:37;98804.20;;;8.10
76898;BMP180;65856;52.178;21.176;2023-03-14T01:42:08;98804.40;;;8.08
76898;BMP180;65856;52.178;21.176;2023-03-14T01:44:54;98803.00;;;8.00
76898;BMP180;65856;52.178;21.176;2023-03-14T01:47:26;98809.80;;;8.00
76898;BMP180;65856;52.178;21.176;2023-03-14T01:50:01;98809.00;;;8.00
76898;BMP180;65856;52.178;21.176;2023-03-14T01:52:38;98811.80;;;8.00
76898;BMP180;65856;52.178;21.176;2023-03-14T01:55:14;98811.60;;;8.00
76898;BMP180;65856;52.178;21.176;2023-03-14T01:57:49;98807.20;;;8.00
76898;BMP180;65856;52.178;21.176;2023-03-14T02:00:24;98806.20;;;7.98
76898;BMP180;65856;52.178;21.176;2023-03-14T02:03:00;98800.40;;;7.90
76898;BMP180;65856;52.178;21.176;2023-03-14T02:05:38;98798.60;;;7.90
76898;BMP180;65856;52.178;21.176;2023-03-14T02:08:38;98798.80;;;7.84
76898;BMP180;65856;52.178;21.176;2023-03-14T02:11:10;98798.80;;;7.80
76898;BMP180;65856;52.178;21.176;2023-03-14T02:13:41;98796.40;;;7.80
76898;BMP180;65856;52.178;21.176;2023-03-14T02:16:12;98790.80;;;7.70
76898;BMP180;65856;52.178;21.176;2023-03-14T02:18:43;98785.20;;;7.70
76898;BMP180;65856;52.178;21.176;2023-03-14T02:21:23;98778.40;;;7.60
76898;BMP180;65856;52.178;21.176;2023-03-14T02:24:07;98773.60;;;7.58
76898;BMP180;65856;52.178;21.176;2023-03-14T02:29:15;98777.20;;;7.46
76898;BMP180;65856;52.178;21.176;2023-03-14T02:31:46;98768.00;;;7.40
76898;BMP180;65856;52.178;21.176;2023-03-14T02:34:17;98764.80;;;7.30
76898;BMP180;65856;52.178;21.176;2023-03-14T02:36:48;98754.00;;;7.30
76898;BMP180;65856;52.178;21.176;2023-03-14T02:39:26;98742.60;;;7.30
76898;BMP180;65856;52.178;21.176;2023-03-14T02:41:59;98736.20;;;7.30
76898;BMP180;65856;52.178;21.176;2023-03-14T02:44:30;98732.20;;;7.30
76898;BMP180;65856;52.178;21.176;2023-03-14T02:47:01;98723.20;;;7.30
76898;BMP180;65856;52.178;21.176;2023-03-14T02:49:35;98716.20;;;7.20
76898;BMP180;65856;52.178;21.176;2023-03-14T02:52:06;98708.80;;;7.20
76898;BMP180;65856;52.178;21.176;2023-03-14T02:54:37;98707.60;;;7.20
76898;BMP180;65856;52.178;21.176;2023-03-14T02:57:08;98719.00;;;7.10
76898;BMP180;65856;52.178;21.176;2023-03-14T02:59:39;98719.00;;;7.10
76898;BMP180;65856;52.178;21.176;2023-03-14T03:02:09;98724.00;;;7.08
76898;BMP180;65856;52.178;21.176;2023-03-14T03:04:40;98722.80;;;7.00
76898;BMP180;65856;52.178;21.176;2023-03-14T03:07:11;98724.60;;;7.00
76898;BMP180;65856;52.178;21.176;2023-03-14T03:09:42;98726.40;;;7.00
76898;BMP180;65856;52.178;21.176;2023-03-14T03:12:13;98723.80;;;6.96
76898;BMP180;65856;52.178;21.176;2023-03-14T03:14:44;98721.80;;;6.92
76898;BMP180;65856;52.178;21.176;2023-03-14T03:17:15;98729.00;;;6.90
76898;BMP180;65856;52.178;21.176;2023-03-14T03:19:46;98732.00;;;6.90
76898;BMP180;65856;52.178;21.176;2023-03-14T03:22:17;98723.40;;;6.90
76898;BMP180;65856;52.178;21.176;2023-03-14T03:24:47;98722.20;;;6.80
76898;BMP180;65856;52.178;21.176;2023-03-14T03:27:19;98721.80;;;6.80
76898;BMP180;65856;52.178;21.176;2023-03-14T03:29:50;98718.00;;;6.70
76898;BMP180;65856;52.178;21.176;2023-03-14T03:32:20;98719.80;;;6.70
76898;BMP180;65856;52.178;21.176;2023-03-14T03:34:51;98710.80;;;6.66
76898;BMP180;65856;52.178;21.176;2023-03-14T03:37:22;98696.00;;;6.60
76898;BMP180;65856;52.178;21.176;2023-03-14T03:39:54;98692.20;;;6.60
76898;BMP180;65856;52.178;21.176;2023-03-14T03:42:25;98697.60;;;6.58
76898;BMP180;65856;52.178;21.176;2023-03-14T03:44:56;98702.80;;;6.50
76898;BMP180;65856;52.178;21.176;2023-03-14T03:47:27;98702.40;;;6.50
76898;BMP180;65856;52.178;21.176;2023-03-14T03:49:58;98706.60;;;6.46
76898;BMP180;65856;52.178;21.176;2023-03-14T03:52:29;98702.60;;;6.40
76898;BMP180;65856;52.178;21.176;2023-03-14T03:54:59;98696.20;;;6.40
76898;BMP180;65856;52.178;21.176;2023-03-14T03:57:30;98697.60;;;6.40
76898;BMP180;65856;52.178;21.176;2023-03-14T04:00:01;98688.20;;;6.38
76898;BMP180;65856;52.178;21.176;2023-03-14T04:02:33;98677.60;;;6.30
76898;BMP180;65856;52.178;21.176;2023-03-14T04:05:04;98691.60;;;6.36
76898;BMP180;65856;52.178;21.176;2023-03-14T04:07:35;98693.40;;;6.40
76898;BMP180;65856;52.178;21.176;2023-03-14T04:10:07;98689.80;;;6.40
76898;BMP180;65856;52.178;21.176;2023-03-14T04:12:38;98686.60;;;6.40
76898;BMP180;65856;52.178;21.176;2023-03-14T04:15:11;98686.20;;;6.40
76898;BMP180;65856;52.178;21.176;2023-03-14T04:17:42;98690.80;;;6.40
76898;BMP180;65856;52.178;21.176;2023-03-14T04:20:14;98687.60;;;6.40
76898;BMP180;65856;52.178;21.176;2023-03-14T04:22:44;98693.80;;;6.32
76898;BMP180;65856;52.178;21.176;2023-03-14T04:25:15;98690.40;;;6.30
76898;BMP180;65856;52.178;21.176;2023-03-14T04:27:49;98710.20;;;6.30
76898;BMP180;65856;52.178;21.176;2023-03-14T04:30:20;98698.00;;;6.30
76898;BMP180;65856;52.178;21.176;2023-03-14T04:32:51;98700.80;;;6.30
76898;BMP180;65856;52.178;21.176;2023-03-14T04:35:22;98693.80;;;6.30
76898;BMP180;65856;52.178;21.176;2023-03-14T04:37:53;98693.60;;;6.30
76898;BMP180;65856;52.178;21.176;2023-03-14T04:40:23;98704.20;;;6.30
76898;BMP180;65856;52.178;21.176;2023-03-14T04:42:54;98700.40;;;6.26
76898;BMP180;65856;52.178;21.176;2023-03-14T04:45:25;98702.20;;;6.30
76898;BMP180;65856;52.178;21.176;2023-03-14T04:47:56;98709.40;;;6.28
76898;BMP180;65856;52.178;21.176;2023-03-14T04:50:26;98697.20;;;6.30
76898;BMP180;65856;52.178;21.176;2023-03-14T04:52:57;98689.40;;;6.30
76898;BMP180;65856;52.178;21.176;2023-03-14T04:55:28;98681.40;;;6.30
76898;BMP180;65856;52.178;21.176;2023-03-14T04:57:59;98666.40;;;6.30
76898;BMP180;65856;52.178;21.176;2023-03-14T05:00:30;98670.00;;;6.30
76898;BMP180;65856;52.178;21.176;2023-03-14T05:03:00;98663.80;;;6.30
76898;BMP180;65856;52.178;21.176;2023-03-14T05:05:31;98653.80;;;6.30
76898;BMP180;65856;52.178;21.176;2023-03-14T05:08:02;98648.80;;;6.30
76898;BMP180;65856;52.178;21.176;2023-03-14T05:10:33;98652.20;;;6.32
76898;BMP180;65856;52.178;21.176;2023-03-14T05:13:04;98646.40;;;6.32
76898;BMP180;65856;52.178;21.176;2023-03-14T05:15:35;98647.80;;;6.40
76898;BMP180;65856;52.178;21.176;2023-03-14T05:18:06;98645.40;;;6.40
76898;BMP180;65856;52.178;21.176;2023-03-14T05:20:37;98634.00;;;6.40
76898;BMP180;65856;52.178;21.176;2023-03-14T05:23:08;98620.00;;;6.40
76898;BMP180;65856;52.178;21.176;2023-03-14T05:25:38;98610.80;;;6.46
76898;BMP180;65856;52.178;21.176;2023-03-14T05:28:09;98608.40;;;6.50
76898;BMP180;65856;52.178;21.176;2023-03-14T05:30:40;98605.20;;;6.50
76898;BMP180;65856;52.178;21.176;2023-03-14T05:33:11;98625.00;;;6.56
76898;BMP180;65856;52.178;21.176;2023-03-14T05:35:42;98626.00;;;6.60
76898;BMP180;65856;52.178;21.176;2023-03-14T05:38:13;98635.00;;;6.60
76898;BMP180;65856;52.178;21.176;2023-03-14T05:40:45;98628.40;;;6.66
76898;BMP180;65856;52.178;21.176;2023-03-14T05:43:16;98623.00;;;6.70
76898;BMP180;65856;52.178;21.176;2023-03-14T05:45:47;98613.60;;;6.80
76898;BMP180;65856;52.178;21.176;2023-03-14T05:48:18;98619.20;;;6.90
76898;BMP180;65856;52.178;21.176;2023-03-14T05:50:53;98605.60;;;7.00
76898;BMP180;65856;52.178;21.176;2023-03-14T05:53:24;98600.20;;;7.10
76898;BMP180;65856;52.178;21.176;2023-03-14T05:55:56;98592.00;;;7.20
76898;BMP180;65856;52.178;21.176;2023-03-14T05:58:27;98596.20;;;7.30
76898;BMP180;65856;52.178;21.176;2023-03-14T06:00:58;98593.20;;;7.40
76898;BMP180;65856;52.178;21.176;2023-03-14T06:03:31;98590.80;;;7.50
76898;BMP180;65856;52.178;21.176;2023-03-14T06:06:03;98588.80;;;7.68
76898;BMP180;65856;52.178;21.176;2023-03-14T06:08:34;98568.40;;;7.80
76898;BMP180;65856;52.178;21.176;2023-03-14T06:11:07;98572.00;;;7.98
76898;BMP180;65856;52.178;21.176;2023-03-14T06:13:38;98569.80;;;8.12
76898;BMP180;65856;52.178;21.176;2023-03-14T06:16:10;98556.80;;;8.36
76898;BMP180;65856;52.178;21.176;2023-03-14T06:18:41;98563.80;;;8.50
76898;BMP180;65856;52.178;21.176;2023-03-14T06:21:12;98554.20;;;8.70
76898;BMP180;65856;52.178;21.176;2023-03-14T06:23:43;98547.80;;;8.90
76898;BMP180;65856;52.178;21.176;2023-03-14T06:26:13;98546.00;;;9.14
76898;BMP180;65856;52.178;21.176;2023-03-14T06:28:45;98549.80;;;9.30
76898;BMP180;65856;52.178;21.176;2023-03-14T06:31:15;98538.60;;;9.40
76898;BMP180;65856;52.178;21.176;2023-03-14T06:33:46;98561.00;;;9.46
76898;BMP180;65856;52.178;21.176;2023-03-14T06:36:17;98559.00;;;9.30
76898;BMP180;65856;52.178;21.176;2023-03-14T06:38:48;98552.40;;;9.20
76898;BMP180;65856;52.178;21.176;2023-03-14T06:41:19;98556.60;;;9.10
76898;BMP180;65856;52.178;21.176;2023-03-14T06:43:53;98546.00;;;8.90
76898;BMP180;65856;52.178;21.176;2023-03-14T06:46:24;98545.80;;;8.90
76898;BMP180;65856;52.178;21.176;2023-03-14T06:48:54;98549.60;;;8.90
76898;BMP180;65856;52.178;21.176;2023-03-14T06:51:25;98552.20;;;8.90
76898;BMP180;65856;52.178;21.176;2023-03-14T06:53:56;98543.40;;;8.90
76898;BMP180;65856;52.178;21.176;2023-03-14T06:56:27;98548.00;;;9.00
76898;BMP180;65856;52.178;21.176;2023-03-14T06:58:58;98534.80;;;9.10
76898;BMP180;65856;52.178;21.176;2023-03-14T07:01:30;98532.20;;;9.20
76898;BMP180;65856;52.178;21.176;2023-03-14T07:04:02;98531.60;;;9.38
76898;BMP180;65856;52.178;21.176;2023-03-14T07:06:34;98513.80;;;9.54
76898;BMP180;65856;52.178;21.176;2023-03-14T07:09:05;98521.20;;;9.72
76898;BMP180;65856;52.178;21.176;2023-03-14T07:11:35;98525.80;;;10.02
76898;BMP180;65856;52.178;21.176;2023-03-14T07:14:06;98535.80;;;10.08
76898;BMP180;65856;52.178;21.176;2023-03-14T07:16:37;98537.60;;;10.10
76898;BMP180;65856;52.178;21.176;2023-03-14T07:19:08;98536.00;;;10.10
76898;BMP180;65856;52.178;21.176;2023-03-14T07:21:39;98545.40;;;10.26
76898;BMP180;65856;52.178;21.176;2023-03-14T07:24:10;98544.00;;;10.30
76898;BMP180;65856;52.178;21.176;2023-03-14T07:26:41;98533.80;;;10.30
76898;BMP180;65856;52.178;21.176;2023-03-14T07:29:11;98513.60;;;10.20
76898;BMP180;65856;52.178;21.176;2023-03-14T07:31:42;98538.80;;;10.20
76898;BMP180;65856;52.178;21.176;2023-03-14T07:34:13;98540.60;;;10.20
76898;BMP180;65856;52.178;21.176;2023-03-14T07:36:44;98540.40;;;10.20
76898;BMP180;65856;52.178;21.176;2023-03-14T07:39:15;98548.60;;;10.20
76898;BMP180;65856;52.178;21.176;2023-03-14T07:41:45;98549.60;;;10.20
76898;BMP180;65856;52.178;21.176;2023-03-14T07:44:16;98559.80;;;10.54
76898;BMP180;65856;52.178;21.176;2023-03-14T07:46:47;98563.20;;;10.82
76898;BMP180;65856;52.178;21.176;2023-03-14T07:49:18;98558.20;;;11.10
76898;BMP180;65856;52.178;21.176;2023-03-14T07:51:51;98551.80;;;11.54
76898;BMP180;65856;52.178;21.176;2023-03-14T07:54:22;98548.40;;;12.00
76898;BMP180;65856;52.178;21.176;2023-03-14T07:56:52;98532.80;;;12.50
76898;BMP180;65856;52.178;21.176;2023-03-14T07:59:23;98536.80;;;13.00
76898;BMP180;65856;52.178;21.176;2023-03-14T08:01:54;98545.00;;;13.40
76898;BMP180;65856;52.178;21.176;2023-03-14T08:04:25;98549.20;;;13.60
76898;BMP180;65856;52.178;21.176;2023-03-14T08:06:56;98546.60;;;13.70
76898;BMP180;65856;52.178;21.176;2023-03-14T08:09:28;98550.40;;;13.80
76898;BMP180;65856;52.178;21.176;2023-03-14T08:11:59;98533.00;;;14.02
76898;BMP180;65856;52.178;21.176;2023-03-14T08:14:30;98543.20;;;14.30
76898;BMP180;65856;52.178;21.176;2023-03-14T08:17:01;98551.20;;;14.54
76898;BMP180;65856;52.178;21.176;2023-03-14T08:19:32;98556.00;;;14.90
76898;BMP180;65856;52.178;21.176;2023-03-14T08:22:02;98559.40;;;15.20
76898;BMP180;65856;52.178;21.176;2023-03-14T08:24:34;98559.80;;;15.36
76898;BMP180;65856;52.178;21.176;2023-03-14T08:27:05;98563.60;;;15.50
76898;BMP180;65856;52.178;21.176;2023-03-14T08:29:36;98553.20;;;15.52
76898;BMP180;65856;52.178;21.176;2023-03-14T08:32:08;98553.80;;;15.72
76898;BMP180;65856;52.178;21.176;2023-03-14T08:34:38;98555.60;;;15.90
76898;BMP180;65856;52.178;21.176;2023-03-14T08:37:09;98556.40;;;16.10
76898;BMP180;65856;52.178;21.176;2023-03-14T08:39:40;98565.40;;;16.30
76898;BMP180;65856;52.178;21.176;2023-03-14T08:42:11;98570.80;;;16.30
76898;BMP180;65856;52.178;21.176;2023-03-14T08:44:42;98570.60;;;16.30
76898;BMP180;65856;52.178;21.176;2023-03-14T08:47:13;98566.00;;;16.30
76898;BMP180;65856;52.178;21.176;2023-03-14T08:49:44;98575.20;;;16.38
76898;BMP180;65856;52.178;21.176;2023-03-14T08:52:15;98566.20;;;16.42
76898;BMP180;65856;52.178;21.176;2023-03-14T08:54:46;98574.40;;;16.60
76898;BMP180;65856;52.178;21.176;2023-03-14T08:57:17;98563.80;;;16.72
76898;BMP180;65856;52.178;21.176;2023-03-14T08:59:48;98564.20;;;16.60
76898;BMP180;65856;52.178;21.176;2023-03-14T09:02:19;98568.20;;;16.40
76898;BMP180;65856;52.178;21.176;2023-03-14T09:04:51;98569.40;;;16.30
76898;BMP180;65856;52.178;21.176;2023-03-14T09:07:22;98555.80;;;16.40
76898;BMP180;65856;52.178;21.176;2023-03-14T09:09:53;98556.40;;;16.50
76898;BMP180;65856;52.178;21.176;2023-03-14T09:12:24;98564.60;;;16.52
76898;BMP180;65856;52.178;21.176;2023-03-14T09:14:54;98561.00;;;16.66
76898;BMP180;65856;52.178;21.176;2023-03-14T09:17:25;98561.00;;;16.74
76898;BMP180;65856;52.178;21.176;2023-03-14T09:19:56;98557.40;;;16.70
76898;BMP180;65856;52.178;21.176;2023-03-14T09:22:27;98549.40;;;16.64
76898;BMP180;65856;52.178;21.176;2023-03-14T09:24:58;98554.60;;;16.60
76898;BMP180;65856;52.178;21.176;2023-03-14T09:27:29;98547.80;;;16.50
76898;BMP180;65856;52.178;21.176;2023-03-14T09:30:00;98547.20;;;16.38
76898;BMP180;65856;52.178;21.176;2023-03-14T09:32:32;98539.20;;;16.40
76898;BMP180;65856;52.178;21.176;2023-03-14T09:35:03;98525.00;;;16.50
76898;BMP180;65856;52.178;21.176;2023-03-14T09:37:34;98518.40;;;16.86
76898;BMP180;65856;52.178;21.176;2023-03-14T09:40:09;98521.60;;;17.00
76898;BMP180;65856;52.178;21.176;2023-03-14T09:42:43;98512.60;;;16.80
76898;BMP180;65856;52.178;21.176;2023-03-14T09:45:21;98508.60;;;16.70
76898;BMP180;65856;52.178;21.176;2023-03-14T09:47:55;98508.20;;;16.80
76898;BMP180;65856;52.178;21.176;2023-03-14T09:50:32;98502.00;;;16.90
76898;BMP180;65856;52.178;21.176;2023-03-14T09:53:14;98491.20;;;17.12
76898;BMP180;65856;52.178;21.176;2023-03-14T09:55:50;98489.80;;;17.20
76898;BMP180;65856;52.178;21.176;2023-03-14T09:58:23;98485.00;;;17.10
76898;BMP180;65856;52.178;21.176;2023-03-14T10:00:57;98474.20;;;17.10
76898;BMP180;65856;52.178;21.176;2023-03-14T10:03:33;98472.60;;;17.10
76898;BMP180;65856;52.178;21.176;2023-03-14T10:06:12;98466.00;;;17.02
76898;BMP180;65856;52.178;21.176;2023-03-14T10:08:44;98462.80;;;17.14
76898;BMP180;65856;52.178;21.176;2023-03-14T10:11:18;98474.80;;;17.30
76898;BMP180;65856;52.178;21.176;2023-03-14T10:14:06;98467.20;;;17.46
76898;BMP180;65856;52.178;21.176;2023-03-14T10:16:42;98478.20;;;17.60
76898;BMP180;65856;52.178;21.176;2023-03-14T10:19:16;98481.80;;;17.52
76898;BMP180;65856;52.178;21.176;2023-03-14T10:21:54;98477.60;;;17.40
76898;BMP180;65856;52.178;21.176;2023-03-14T10:24:30;98481.20;;;17.20
76898;BMP180;65856;52.178;21.176;2023-03-14T10:27:05;98478.00;;;17.10
76898;BMP180;65856;52.178;21.176;2023-03-14T10:29:53;98483.00;;;16.90
76898;BMP180;65856;52.178;21.176;2023-03-14T10:32:31;98477.20;;;16.80
76898;BMP180;65856;52.178;21.176;2023-03-14T10:35:22;98464.60;;;16.90
76898;BMP180;65856;52.178;21.176;2023-03-14T10:37:58;98461.60;;;16.80
76898;BMP180;65856;52.178;21.176;2023-03-14T10:40:36;98460.00;;;16.80
76898;BMP180;65856;52.178;21.176;2023-03-14T10:43:15;98465.60;;;16.80
76898;BMP180;65856;52.178;21.176;2023-03-14T10:45:56;98474.40;;;16.90
76898;BMP180;65856;52.178;21.176;2023-03-14T10:48:34;98467.00;;;16.90
76898;BMP180;65856;52.178;21.176;2023-03-14T10:51:17;98463.20;;;16.80
76898;BMP180;65856;52.178;21.176;2023-03-14T10:53:57;98469.40;;;16.80
76898;BMP180;65856;52.178;21.176;2023-03-14T10:56:36;98466.80;;;16.70
76898;BMP180;65856;52.178;21.176;2023-03-14T10:59:14;98461.00;;;16.68
76898;BMP180;65856;52.178;21.176;2023-03-14T11:01:55;98468.00;;;16.60
76898;BMP180;65856;52.178;21.176;2023-03-14T11:04:50;98473.00;;;16.40
76898;BMP180;65856;52.178;21.176;2023-03-14T11:07:32;98464.60;;;16.30
76898;BMP180;65856;52.178;21.176;2023-03-14T11:10:17;98471.20;;;16.18
76898;BMP180;65856;52.178;21.176;2023-03-14T11:13:03;98472.00;;;16.00
76898;BMP180;65856;52.178;21.176;2023-03-14T11:15:43;98479.00;;;15.80
76898;BMP180;65856;52.178;21.176;2023-03-14T11:18:48;98475.40;;;15.70
76898;BMP180;65856;52.178;21.176;2023-03-14T11:21:29;98474.80;;;15.50
76898;BMP180;65856;52.178;21.176;2023-03-14T11:24:21;98475.80;;;15.40
76898;BMP180;65856;52.178;21.176;2023-03-14T11:27:03;98478.40;;;15.30
76898;BMP180;65856;52.178;21.176;2023-03-14T11:29:43;98478.80;;;15.38
76898;BMP180;65856;52.178;21.176;2023-03-14T11:32:28;98480.80;;;15.30
76898;BMP180;65856;52.178;21.176;2023-03-14T11:35:14;98479.40;;;15.40
76898;BMP180;65856;52.178;21.176;2023-03-14T11:37:54;98472.60;;;15.40
76898;BMP180;65856;52.178;21.176;2023-03-14T11:40:29;98470.20;;;15.40
76898;BMP180;65856;52.178;21.176;2023-03-14T11:43:13;98463.20;;;15.40
76898;BMP180;65856;52.178;21.176;2023-03-14T11:45:49;98459.60;;;15.50
76898;BMP180;65856;52.178;21.176;2023-03-14T11:48:32;98457.40;;;15.56
76898;BMP180;65856;52.178;21.176;2023-03-14T11:51:11;98449.00;;;15.60
76898;BMP180;65856;52.178;21.176;2023-03-14T11:53:55;98449.00;;;15.68
76898;BMP180;65856;52.178;21.176;2023-03-14T11:56:36;98453.20;;;15.70
76898;BMP180;65856;52.178;21.176;2023-03-14T11:59:16;98458.00;;;15.60
76898;BMP180;65856;52.178;21.176;2023-03-14T12:02:03;98468.40;;;15.50
76898;BMP180;65856;52.178;21.176;2023-03-14T12:04:53;98466.60;;;15.40
76898;BMP180;65856;52.178;21.176;2023-03-14T12:07:37;98463.00;;;15.34
76898;BMP180;65856;52.178;21.176;2023-03-14T12:10:15;98465.60;;;15.30
76898;BMP180;65856;52.178;21.176;2023-03-14T12:12:47;98473.00;;;15.30
76898;BMP180;65856;52.178;21.176;2023-03-14T12:15:22;98472.00;;;15.20
76898;BMP180;65856;52.178;21.176;2023-03-14T12:17:57;98472.00;;;15.20
76898;BMP180;65856;52.178;21.176;2023-03-14T12:20:29;98458.40;;;15.20
76898;BMP180;65856;52.178;21.176;2023-03-14T12:23:03;98463.60;;;15.20
76898;BMP180;65856;52.178;21.176;2023-03-14T12:25:36;98465.60;;;15.30
76898;BMP180;65856;52.178;21.176;2023-03-14T12:28:20;98464.00;;;15.30
76898;BMP180;65856;52.178;21.176;2023-03-14T12:30:51;98483.20;;;15.30
76898;BMP180;65856;52.178;21.176;2023-03-14T12:33:33;98472.40;;;15.30
76898;BMP180;65856;52.178;21.176;2023-03-14T12:36:15;98457.40;;;15.30
76898;BMP180;65856;52.178;21.176;2023-03-14T12:39:17;98469.80;;;15.30
76898;BMP180;65856;52.178;21.176;2023-03-14T12:42:00;98473.20;;;15.30
76898;BMP180;65856;52.178;21.176;2023-03-14T12:44:47;98479.60;;;15.28
76898;BMP180;65856;52.178;21.176;2023-03-14T12:47:52;98478.60;;;15.20
76898;BMP180;65856;52.178;21.176;2023-03-14T12:50:34;98472.00;;;15.20
76898;BMP180;65856;52.178;21.176;2023-03-14T12:57:19;98470.80;;;15.16
76898;BMP180;65856;52.178;21.176;2023-03-14T12:59:57;98468.80;;;15.10
76898;BMP180;65856;52.178;21.176;2023-03-14T13:02:36;98477.60;;;15.10
76898;BMP180;65856;52.178;21.176;2023-03-14T13:05:14;98483.20;;;15.00
76898;BMP180;65856;52.178;21.176;2023-03-14T13:08:06;98482.80;;;14.90
76898;BMP180;65856;52.178;21.176;2023-03-14T13:10:49;98482.60;;;14.80
76898;BMP180;65856;52.178;21.176;2023-03-14T13:13:24;98489.00;;;14.80
76898;BMP180;65856;52.178;21.176;2023-03-14T13:16:01;98495.40;;;14.70
76898;BMP180;65856;52.178;21.176;2023-03-14T13:18:38;98496.40;;;14.60
76898;BMP180;65856;52.178;21.176;2023-03-14T13:21:16;98502.60;;;14.46
76898;BMP180;65856;52.178;21.176;2023-03-14T13:24:01;98512.20;;;14.28
76898;BMP180;65856;52.178;21.176;2023-03-14T13:26:41;98516.20;;;14.10
76898;BMP180;65856;52.178;21.176;2023-03-14T13:29:19;98519.60;;;13.98
76898;BMP180;65856;52.178;21.176;2023-03-14T13:31:52;98528.00;;;13.90
76898;BMP180;65856;52.178;21.176;2023-03-14T13:34:26;98528.60;;;13.80
76898;BMP180;65856;52.178;21.176;2023-03-14T13:36:59;98529.80;;;13.60
76898;BMP180;65856;52.178;21.176;2023-03-14T13:39:31;98529.40;;;13.50
76898;BMP180;65856;52.178;21.176;2023-03-14T13:42:03;98527.60;;;13.40
76898;BMP180;65856;52.178;21.176;2023-03-14T13:44:36;98524.20;;;13.40
76898;BMP180;65856;52.178;21.176;2023-03-14T13:47:14;98528.00;;;13.30
76898;BMP180;65856;52.178;21.176;2023-03-14T13:49:47;98529.40;;;13.30
76898;BMP180;65856;52.178;21.176;2023-03-14T13:52:30;98536.00;;;13.20
76898;BMP180;65856;52.178;21.176;2023-03-14T13:55:04;98535.80;;;13.20
76898;BMP180;65856;52.178;21.176;2023-03-14T13:57:48;98525.20;;;13.10
76898;BMP180;65856;52.178;21.176;2023-03-14T14:00:27;98527.80;;;13.00
76898;BMP180;65856;52.178;21.176;2023-03-14T14:03:01;98535.20;;;12.90
76898;BMP180;65856;52.178;21.176;2023-03-14T14:05:32;98537.80;;;12.90
76898;BMP180;65856;52.178;21.176;2023-03-14T14:08:10;98535.20;;;12.80
76898;BMP180;65856;52.178;21.176;2023-03-14T14:10:42;98538.40;;;12.80
76898;BMP180;65856;52.178;21.176;2023-03-14T14:13:18;98531.20;;;12.70
76898;BMP180;65856;52.178;21.176;2023-03-14T14:15:53;98525.20;;;12.68
76898;BMP180;65856;52.178;21.176;2023-03-14T14:18:28;98523.00;;;12.60
76898;BMP180;65856;52.178;21.176;2023-03-14T14:21:00;98524.20;;;12.60
76898;BMP180;65856;52.178;21.176;2023-03-14T14:23:32;98519.80;;;12.50
76898;BMP180;65856;52.178;21.176;2023-03-14T14:26:05;98520.20;;;12.50
76898;BMP180;65856;52.178;21.176;2023-03-14T14:28:38;98520.60;;;12.40
76898;BMP180;65856;52.178;21.176;2023-03-14T14:31:21;98517.40;;;12.40
76898;BMP180;65856;52.178;21.176;2023-03-14T14:33:59;98513.20;;;12.30
76898;BMP180;65856;52.178;21.176;2023-03-14T14:36:38;98502.60;;;12.20
76898;BMP180;65856;52.178;21.176;2023-03-14T14:39:18;98499.40;;;12.10
76898;BMP180;65856;52.178;21.176;2023-03-14T14:41:51;98495.80;;;12.10
76898;BMP180;65856;52.178;21.176;2023-03-14T14:44:32;98495.40;;;12.00
76898;BMP180;65856;52.178;21.176;2023-03-14T14:47:05;98494.40;;;12.00